createdAt,value
2019-06-08T00:01:12.280Z,54.30
2019-06-08T00:03:38.127Z,54.30
2019-06-08T00:06:05.191Z,54.30
2019-06-08T00:08:31.831Z,54.30
2019-06-08T00:10:58.493Z,54.30
2019-06-08T00:13:25.186Z,54.30
2019-06-08T00:15:52.331Z,54.30
2019-06-08T00:18:19.404Z,54.20
2019-06-08T00:20:45.627Z,54.30
2019-06-08T00:23:13.652Z,54.20
2019-06-08T00:25:38.931Z,54.30
2019-06-08T00:28:05.595Z,54.20
2019-06-08T00:30:32.911Z,54.20
2019-06-08T00:32:58.873Z,54.20
2019-06-08T00:35:25.973Z,54.30
2019-06-08T00:37:53.115Z,54.20
2019-06-08T00:40:21.084Z,54.20
2019-06-08T00:42:46.889Z,54.20
2019-06-08T00:45:13.518Z,54.10
2019-06-08T00:47:47.398Z,54.20
2019-06-08T00:50:06.826Z,54.20
2019-06-08T00:52:33.546Z,54.20
2019-06-08T00:55:00.187Z,54.10
2019-06-08T00:57:26.853Z,54.20
2019-06-08T00:59:54.008Z,54.10
2019-06-08T01:02:22.450Z,54.10
2019-06-08T01:04:48.307Z,54.20
2019-06-08T01:07:15.479Z,54.20
2019-06-08T01:09:42.648Z,54.10
2019-06-08T01:12:09.761Z,54.10
2019-06-08T01:14:36.827Z,54.10
2019-06-08T01:17:03.899Z,54.10
2019-06-08T01:19:30.983Z,54.10
2019-06-08T01:21:58.078Z,54.10
2019-06-08T01:24:25.693Z,54.10
2019-06-08T01:26:52.273Z,54.10
2019-06-08T01:29:20.165Z,54.10
2019-06-08T01:31:46.453Z,54.10
2019-06-08T01:34:13.589Z,54.10
2019-06-08T01:36:40.721Z,54.10
2019-06-08T01:39:07.835Z,54.10
2019-06-08T01:41:34.437Z,54.10
2019-06-08T01:44:01.057Z,54.10
2019-06-08T01:46:28.323Z,54.10
2019-06-08T01:48:54.850Z,54.10
2019-06-08T01:51:22.520Z,54.10
2019-06-08T01:53:48.166Z,54.10
2019-06-08T01:56:14.805Z,54.10
2019-06-08T01:58:41.498Z,54.10
2019-06-08T02:01:08.145Z,54.10
2019-06-08T02:03:34.975Z,54.10
2019-06-08T02:06:01.625Z,54.10
2019-06-08T02:08:28.598Z,54.10
2019-06-08T02:10:55.454Z,54.10
2019-06-08T02:13:22.545Z,54.10
2019-06-08T02:15:49.589Z,54.10
2019-06-08T02:18:16.659Z,54.10
2019-06-08T02:20:43.299Z,54.10
2019-06-08T02:23:09.929Z,54.10
2019-06-08T02:25:36.594Z,54.00
2019-06-08T02:28:03.629Z,54.00
2019-06-08T02:30:33.222Z,54.00
2019-06-08T02:32:57.542Z,54.00
2019-06-08T02:35:24.612Z,53.90
2019-06-08T02:37:51.697Z,54.00
2019-06-08T02:40:18.745Z,54.00
2019-06-08T02:42:45.401Z,54.00
2019-06-08T02:45:12.051Z,54.00
2019-06-08T02:47:40.883Z,53.90
2019-06-08T02:50:05.419Z,53.90
2019-06-08T02:52:34.093Z,53.90
2019-06-08T02:54:58.730Z,53.90
2019-06-08T02:57:25.348Z,53.90
2019-06-08T02:59:52.019Z,53.90
2019-06-08T03:02:18.906Z,53.90
2019-06-08T03:04:45.596Z,53.90
2019-06-08T03:07:12.223Z,53.80
2019-06-08T03:09:38.863Z,53.80
2019-06-08T03:12:12.127Z,53.80
2019-06-08T03:14:39.700Z,53.80
2019-06-08T03:17:05.464Z,53.80
2019-06-08T03:19:33.352Z,53.70
2019-06-08T03:21:58.883Z,53.80
2019-06-08T03:24:25.553Z,53.70
2019-06-08T03:26:52.618Z,53.70
2019-06-08T03:29:19.636Z,53.70
2019-06-08T03:31:55.051Z,53.70
2019-06-08T03:34:13.913Z,53.70
2019-06-08T03:36:53.652Z,53.70
2019-06-08T03:39:07.923Z,53.70
2019-06-08T03:41:36.243Z,53.60
2019-06-08T03:44:02.226Z,53.60
2019-06-08T03:46:29.374Z,53.50
2019-06-08T03:48:56.443Z,53.60
2019-06-08T03:51:23.579Z,53.60
2019-06-08T03:53:50.715Z,53.50
2019-06-08T03:56:17.804Z,53.50
2019-06-08T03:58:47.297Z,53.50
2019-06-08T04:01:12.068Z,53.50
2019-06-08T04:03:39.953Z,53.50
2019-06-08T04:06:06.300Z,53.50
2019-06-08T04:08:33.442Z,53.50
2019-06-08T04:11:00.552Z,53.40
2019-06-08T04:13:27.602Z,53.40
2019-06-08T04:15:54.727Z,53.50
2019-06-08T04:18:21.819Z,53.50
2019-06-08T04:20:51.341Z,53.40
2019-06-08T04:23:15.983Z,53.40
2019-06-08T04:25:44.801Z,53.50
2019-06-08T04:28:10.225Z,53.40
2019-06-08T04:30:38.701Z,53.40
2019-06-08T04:33:04.514Z,53.50
2019-06-08T04:35:31.569Z,53.40
2019-06-08T04:37:58.691Z,53.30
2019-06-08T04:40:25.822Z,53.40
2019-06-08T04:42:52.962Z,53.30
2019-06-08T04:45:20.000Z,53.30
2019-06-08T04:47:48.207Z,53.30
2019-06-08T04:50:22.481Z,53.30
2019-06-08T04:52:42.481Z,53.30
2019-06-08T04:55:08.371Z,53.90
2019-06-08T04:57:35.441Z,53.30
2019-06-08T05:00:11.164Z,53.20
2019-06-08T05:02:29.684Z,53.20
2019-06-08T05:04:56.770Z,53.20
2019-06-08T05:07:23.842Z,53.20
2019-06-08T05:09:50.898Z,53.20
2019-06-08T05:12:17.974Z,53.20
2019-06-08T05:14:45.119Z,53.10
2019-06-08T05:17:12.272Z,53.20
2019-06-08T05:19:39.434Z,53.20
2019-06-08T05:22:06.517Z,53.10
2019-06-08T05:24:33.608Z,53.10
2019-06-08T05:27:00.722Z,53.10
2019-06-08T05:29:27.829Z,53.10
2019-06-08T05:31:54.943Z,53.00
2019-06-08T05:34:22.038Z,53.00
2019-06-08T05:36:50.056Z,53.00
2019-06-08T05:39:16.350Z,53.00
2019-06-08T05:41:43.473Z,53.00
2019-06-08T05:44:09.656Z,53.00
2019-06-08T05:46:36.727Z,53.00
2019-06-08T05:49:03.370Z,53.00
2019-06-08T05:51:30.426Z,53.00
2019-06-08T05:53:57.562Z,53.00
2019-06-08T05:56:24.727Z,53.00
2019-06-08T05:58:51.781Z,53.00
2019-06-08T06:01:18.887Z,52.90
2019-06-08T06:03:46.536Z,52.90
2019-06-08T06:06:13.071Z,52.90
2019-06-08T06:08:40.354Z,52.90
2019-06-08T06:11:07.323Z,52.90
2019-06-08T06:13:34.402Z,52.90
2019-06-08T06:16:01.519Z,52.90
2019-06-08T06:18:28.663Z,52.80
2019-06-08T06:21:09.849Z,52.80
2019-06-08T06:23:22.868Z,52.80
2019-06-08T06:25:50.009Z,52.80
2019-06-08T06:28:24.476Z,52.80
2019-06-08T06:30:52.223Z,52.80
2019-06-08T06:33:18.738Z,52.80
2019-06-08T06:35:45.821Z,52.70
2019-06-08T06:38:12.875Z,52.80
2019-06-08T06:40:39.971Z,52.70
2019-06-08T06:43:13.854Z,52.70
2019-06-08T06:45:41.809Z,52.70
2019-06-08T06:48:08.268Z,52.60
2019-06-08T06:50:35.402Z,52.70
2019-06-08T06:53:02.470Z,52.70
2019-06-08T06:55:29.539Z,52.60
2019-06-08T06:57:56.649Z,52.60
2019-06-08T07:00:29.236Z,52.60
2019-06-08T07:02:56.350Z,52.50
2019-06-08T07:05:23.438Z,52.50
2019-06-08T07:07:50.554Z,52.50
2019-06-08T07:10:17.736Z,52.60
2019-06-08T07:12:44.854Z,52.50
2019-06-08T07:15:13.047Z,53.20
2019-06-08T07:17:40.183Z,52.50
2019-06-08T07:20:07.238Z,52.50
2019-06-08T07:22:34.362Z,52.50
2019-06-08T07:25:01.494Z,52.50
2019-06-08T07:27:28.514Z,52.50
2019-06-08T07:29:55.595Z,52.50
2019-06-08T07:32:22.679Z,52.50
2019-06-08T07:34:50.417Z,52.50
2019-06-08T07:37:16.879Z,52.40
2019-06-08T07:39:43.995Z,52.40
2019-06-08T07:42:11.087Z,52.50
2019-06-08T07:44:38.141Z,52.40
2019-06-08T07:47:05.304Z,52.20
2019-06-08T07:49:32.408Z,52.30
2019-06-08T07:52:09.719Z,52.30
2019-06-08T07:54:26.627Z,52.30
2019-06-08T07:56:54.884Z,52.30
2019-06-08T07:59:20.850Z,52.20
2019-06-08T08:01:47.907Z,52.20
2019-06-08T08:04:15.055Z,52.20
2019-06-08T08:06:42.185Z,52.20
2019-06-08T08:09:09.371Z,52.20
2019-06-08T08:11:36.449Z,52.20
2019-06-08T08:14:03.604Z,52.20
2019-06-08T08:16:30.669Z,52.20
2019-06-08T08:18:57.925Z,52.00
2019-06-08T08:21:26.404Z,52.10
2019-06-08T08:23:53.236Z,52.00
2019-06-08T08:26:19.360Z,52.00
2019-06-08T08:28:50.060Z,52.00
2019-06-08T08:31:15.410Z,52.00
2019-06-08T08:33:40.697Z,52.00
2019-06-08T08:36:07.882Z,52.00
2019-06-08T08:38:35.111Z,51.90
2019-06-08T08:41:07.150Z,52.00
2019-06-08T08:43:29.397Z,52.00
2019-06-08T08:45:58.707Z,51.90
2019-06-08T08:48:28.124Z,51.90
2019-06-08T08:50:51.332Z,51.80
2019-06-08T08:53:18.135Z,51.80
2019-06-08T08:55:45.014Z,51.80
2019-06-08T08:58:12.204Z,51.80
2019-06-08T09:00:41.156Z,51.90
2019-06-08T09:03:22.002Z,51.90
2019-06-08T09:05:33.766Z,51.80
2019-06-08T09:08:02.637Z,51.80
2019-06-08T09:10:28.201Z,51.80
2019-06-08T09:12:56.445Z,51.80
2019-06-08T09:15:22.461Z,51.80
2019-06-08T09:17:49.628Z,51.70
2019-06-08T09:20:19.286Z,51.90
2019-06-08T09:22:53.719Z,51.60
2019-06-08T09:25:13.530Z,51.70
2019-06-08T09:27:38.320Z,51.80
2019-06-08T09:30:05.187Z,51.70
2019-06-08T09:32:32.214Z,51.70
2019-06-08T09:35:02.694Z,51.70
2019-06-08T09:37:28.625Z,51.70
2019-06-08T09:39:53.964Z,51.60
2019-06-08T09:42:21.238Z,51.60
2019-06-08T09:44:48.342Z,51.60
2019-06-08T09:47:14.846Z,51.60
2019-06-08T09:49:41.929Z,51.70
2019-06-08T09:52:09.059Z,51.60
2019-06-08T09:54:38.250Z,51.50
2019-06-08T09:57:05.725Z,51.60
2019-06-08T09:59:30.213Z,51.50
2019-06-08T10:02:05.161Z,51.60
2019-06-08T10:04:25.679Z,51.50
2019-06-08T10:06:51.543Z,51.40
2019-06-08T10:09:18.837Z,51.50
2019-06-08T10:11:45.842Z,51.30
2019-06-08T10:14:13.115Z,51.40
2019-06-08T10:16:40.025Z,51.30
2019-06-08T10:19:10.121Z,51.30
2019-06-08T10:21:34.257Z,51.30
2019-06-08T10:24:04.381Z,51.30
2019-06-08T10:26:28.360Z,51.30
2019-06-08T10:28:55.392Z,51.20
2019-06-08T10:31:35.525Z,51.40
2019-06-08T10:33:49.585Z,51.30
2019-06-08T10:36:18.287Z,51.30
2019-06-08T10:38:43.963Z,51.30
2019-06-08T10:41:17.667Z,51.30
2019-06-08T10:43:38.681Z,51.30
2019-06-08T10:46:10.018Z,51.30
2019-06-08T10:48:32.096Z,51.30
2019-06-08T10:51:02.266Z,51.30
2019-06-08T10:53:28.436Z,51.20
2019-06-08T10:55:53.314Z,51.10
2019-06-08T10:58:20.440Z,51.10
2019-06-08T11:00:48.073Z,51.10
2019-06-08T11:03:14.742Z,51.20
2019-06-08T11:05:41.799Z,50.90
2019-06-08T11:08:14.126Z,51.00
2019-06-08T11:10:37.356Z,51.10
2019-06-08T11:13:08.241Z,51.10
2019-06-08T11:15:30.207Z,51.10
2019-06-08T11:18:00.407Z,50.90
2019-06-08T11:20:24.413Z,51.00
2019-06-08T11:22:51.562Z,51.00
2019-06-08T11:25:19.867Z,51.70
2019-06-08T11:27:47.515Z,51.00
2019-06-08T11:30:20.701Z,51.00
2019-06-08T11:32:39.950Z,51.00
2019-06-08T11:35:10.662Z,50.90
2019-06-08T11:37:34.043Z,50.90
2019-06-08T11:40:02.170Z,51.00
2019-06-08T11:42:28.691Z,50.90
2019-06-08T11:44:55.360Z,50.90
2019-06-08T11:47:22.482Z,51.00
2019-06-08T11:49:50.017Z,50.90
2019-06-08T11:52:18.444Z,50.80
2019-06-08T11:54:43.895Z,50.90
2019-06-08T11:57:12.837Z,50.80
2019-06-08T11:59:38.138Z,50.70
2019-06-08T12:02:05.671Z,50.70
2019-06-08T12:04:32.390Z,50.70
2019-06-08T12:06:59.487Z,50.70
2019-06-08T12:09:28.511Z,50.60
2019-06-08T12:11:53.638Z,50.60
2019-06-08T12:14:20.770Z,50.60
2019-06-08T12:16:48.602Z,50.60
2019-06-08T12:19:17.278Z,50.40
2019-06-08T12:21:42.012Z,50.50
2019-06-08T12:24:10.386Z,51.10
2019-06-08T12:26:36.292Z,50.40
2019-06-08T12:29:03.298Z,50.30
2019-06-08T12:31:30.389Z,50.30
2019-06-08T12:33:58.777Z,50.40
2019-06-08T12:36:24.586Z,50.30
2019-06-08T12:38:51.654Z,50.30
2019-06-08T12:41:19.353Z,51.00
2019-06-08T12:43:47.933Z,50.30
2019-06-08T12:46:14.569Z,50.30
2019-06-08T12:48:40.133Z,50.30
2019-06-08T12:51:10.010Z,50.30
2019-06-08T12:53:34.369Z,50.30
2019-06-08T12:56:01.503Z,50.30
2019-06-08T12:58:28.575Z,50.30
2019-06-08T13:00:57.848Z,50.30
2019-06-08T13:03:22.839Z,50.30
2019-06-08T13:05:49.891Z,50.30
2019-06-08T13:08:20.057Z,50.30
2019-06-08T13:10:44.183Z,50.30
2019-06-08T13:13:12.694Z,50.30
2019-06-08T13:15:38.610Z,50.30
2019-06-08T13:18:05.498Z,50.30
2019-06-08T13:20:32.506Z,50.30
2019-06-08T13:23:00.415Z,50.20
2019-06-08T13:25:37.511Z,50.30
2019-06-08T13:27:53.831Z,50.30
2019-06-08T13:30:25.884Z,50.10
2019-06-08T13:32:48.332Z,50.10
2019-06-08T13:35:17.108Z,50.10
2019-06-08T13:37:42.294Z,50.00
2019-06-08T13:40:09.326Z,50.20
2019-06-08T13:42:38.304Z,50.10
2019-06-08T13:45:04.736Z,50.10
2019-06-08T13:47:31.829Z,50.10
2019-06-08T13:49:58.909Z,50.10
2019-06-08T13:52:28.137Z,50.00
2019-06-08T13:54:53.242Z,50.10
2019-06-08T13:57:23.510Z,50.10
2019-06-08T13:59:49.016Z,50.00
2019-06-08T14:02:15.531Z,50.00
2019-06-08T14:04:41.563Z,50.10
2019-06-08T14:07:08.654Z,50.00
2019-06-08T14:09:38.308Z,50.10
2019-06-08T14:12:03.426Z,50.10
2019-06-08T14:14:33.546Z,50.10
2019-06-08T14:16:58.744Z,50.10
2019-06-08T14:19:26.118Z,50.20
2019-06-08T14:21:51.931Z,50.10
2019-06-08T14:24:25.725Z,50.10
2019-06-08T14:26:48.499Z,50.00
2019-06-08T14:29:13.182Z,50.00
2019-06-08T14:31:40.257Z,50.00
2019-06-08T14:34:10.179Z,50.00
2019-06-08T14:36:34.558Z,50.00
2019-06-08T14:39:02.632Z,50.00
2019-06-08T14:41:31.109Z,49.90
2019-06-08T14:43:58.332Z,50.00
2019-06-08T14:46:24.335Z,49.90
2019-06-08T14:48:50.206Z,49.90
2019-06-08T14:51:18.603Z,49.90
2019-06-08T14:53:44.500Z,49.90
2019-06-08T14:56:11.751Z,50.00
2019-06-08T14:58:38.902Z,49.90
2019-06-08T15:01:07.922Z,49.90
2019-06-08T15:03:33.033Z,49.90
2019-06-08T15:06:00.155Z,50.00
2019-06-08T15:08:28.572Z,49.90
2019-06-08T15:10:54.286Z,49.90
2019-06-08T15:13:21.858Z,49.90
2019-06-08T15:15:48.430Z,49.90
2019-06-08T15:18:18.412Z,49.90
2019-06-08T15:20:42.615Z,49.80
2019-06-08T15:23:09.689Z,49.80
2019-06-08T15:25:38.686Z,49.80
2019-06-08T15:28:03.910Z,49.70
2019-06-08T15:30:31.477Z,49.80
2019-06-08T15:32:58.686Z,49.80
2019-06-08T15:35:25.376Z,49.70
2019-06-08T15:37:52.291Z,49.70
2019-06-08T15:40:19.342Z,49.80
2019-06-08T15:42:47.976Z,49.70
2019-06-08T15:45:13.534Z,49.80
2019-06-08T15:47:40.928Z,49.80
2019-06-08T15:50:08.868Z,49.70
2019-06-08T15:52:34.784Z,49.70
2019-06-08T15:55:01.897Z,49.70
2019-06-08T15:57:31.092Z,49.70
2019-06-08T15:59:58.430Z,49.70
2019-06-08T16:02:23.217Z,49.80
2019-06-08T16:04:50.309Z,49.80
2019-06-08T16:07:17.536Z,49.80
2019-06-08T16:09:44.608Z,49.70
2019-06-08T16:12:11.710Z,49.70
2019-06-08T16:14:41.172Z,49.70
2019-06-08T16:20:27.522Z,49.80
2019-06-08T16:22:53.550Z,49.70
2019-06-08T16:25:20.691Z,49.80
2019-06-08T16:27:47.746Z,50.40
2019-06-08T16:30:14.738Z,49.70
2019-06-08T16:32:41.823Z,49.70
2019-06-08T16:35:08.839Z,49.70
2019-06-08T16:37:35.915Z,49.60
2019-06-08T16:40:03.431Z,49.60
2019-06-08T16:42:30.398Z,49.70
2019-06-08T16:44:57.407Z,49.60
2019-06-08T16:47:24.402Z,49.50
2019-06-08T16:49:51.454Z,49.60
2019-06-08T16:52:18.711Z,49.50
2019-06-08T16:54:45.680Z,49.50
2019-06-08T16:57:12.805Z,49.50
2019-06-08T17:00:17.666Z,49.50
2019-06-08T17:02:28.551Z,49.50
2019-06-08T17:05:19.294Z,49.50
2019-06-08T17:07:46.394Z,49.50
2019-06-08T17:10:13.399Z,49.50
2019-06-08T17:12:40.468Z,49.50
2019-06-08T17:15:30.175Z,49.50
2019-06-08T17:17:56.147Z,49.50
2019-06-08T17:20:50.133Z,49.50
2019-06-08T17:23:17.155Z,49.40
2019-06-08T17:26:06.911Z,49.40
2019-06-08T17:28:35.054Z,49.40
2019-06-08T17:31:27.465Z,49.40
2019-06-08T17:33:54.558Z,49.30
2019-06-08T17:36:45.951Z,49.30
2019-06-08T17:39:13.039Z,49.30
2019-06-08T17:42:07.019Z,49.30
2019-06-08T17:44:34.902Z,49.30
2019-06-08T17:47:25.255Z,49.20
2019-06-08T17:49:52.265Z,49.10
2019-06-08T17:52:43.206Z,49.20
2019-06-08T17:55:10.227Z,49.40
2019-06-08T17:58:03.925Z,49.20
2019-06-08T18:00:30.933Z,49.20
2019-06-08T18:03:22.082Z,49.20
2019-06-08T18:05:49.156Z,49.20
2019-06-08T18:08:47.437Z,49.10
2019-06-08T18:11:12.058Z,49.20
2019-06-08T18:14:00.443Z,49.20
2019-06-08T18:16:27.876Z,49.20
2019-06-08T18:19:21.028Z,49.20
2019-06-08T18:21:48.166Z,49.20
2019-06-08T18:24:39.432Z,49.70
2019-06-08T18:27:04.844Z,49.10
2019-06-08T18:29:58.702Z,49.10
2019-06-08T18:32:27.170Z,49.20
2019-06-08T18:35:18.246Z,49.10
2019-06-08T18:37:45.519Z,49.10
2019-06-08T18:40:39.355Z,49.20
2019-06-08T18:43:07.482Z,49.10
2019-06-08T18:45:53.892Z,49.10
2019-06-08T18:48:20.989Z,49.10
2019-06-08T18:51:17.341Z,49.10
2019-06-08T18:54:01.806Z,49.10
2019-06-08T18:56:33.256Z,49.00
2019-06-08T18:59:00.324Z,49.10
2019-06-08T19:01:51.903Z,49.10
2019-06-08T19:04:19.060Z,49.10
2019-06-08T19:07:12.395Z,49.00
2019-06-08T19:09:40.922Z,49.00
2019-06-08T19:12:28.879Z,49.80
2019-06-08T19:14:58.078Z,48.90
2019-06-08T19:17:54.265Z,49.00
2019-06-08T19:20:17.021Z,49.00
2019-06-08T19:23:08.988Z,49.10
2019-06-08T19:25:34.499Z,49.00
2019-06-08T19:28:35.950Z,49.00
2019-06-08T19:30:53.150Z,49.00
2019-06-08T19:33:51.365Z,49.00
2019-06-08T19:36:14.088Z,49.10
2019-06-08T19:39:07.641Z,49.00
2019-06-08T19:41:34.747Z,49.00
2019-06-08T19:44:23.593Z,49.00
2019-06-08T19:46:52.661Z,49.00
2019-06-08T19:49:42.799Z,48.90
2019-06-08T19:52:08.829Z,49.10
2019-06-08T19:55:00.381Z,48.90
2019-06-08T19:57:28.154Z,48.90
2019-06-08T20:00:19.548Z,49.10
2019-06-08T20:02:47.989Z,49.10
2019-06-08T20:05:41.277Z,49.00
2019-06-08T20:08:08.133Z,48.90
2019-06-08T20:10:58.399Z,49.00
2019-06-08T20:13:25.429Z,49.00
2019-06-08T20:16:17.379Z,48.80
2019-06-08T20:18:44.040Z,48.90
2019-06-08T20:21:32.253Z,49.00
2019-06-08T20:23:59.343Z,49.00
2019-06-08T20:26:53.410Z,49.00
2019-06-08T20:29:20.097Z,49.00
2019-06-08T20:32:08.467Z,48.90
2019-06-08T20:34:34.506Z,48.90
2019-06-08T20:37:28.256Z,48.90
2019-06-08T20:40:06.956Z,48.90
2019-06-08T20:42:44.173Z,48.90
2019-06-08T20:45:10.345Z,48.90
2019-06-08T20:48:04.557Z,48.90
2019-06-08T20:50:31.674Z,48.90
2019-06-08T20:53:19.642Z,48.90
2019-06-08T20:55:48.224Z,49.00
2019-06-08T20:58:40.960Z,48.90
2019-06-08T21:01:07.951Z,49.00
2019-06-08T21:03:57.566Z,48.90
2019-06-08T21:06:24.595Z,48.80
2019-06-08T21:09:18.575Z,48.80
2019-06-08T21:11:49.244Z,49.00
2019-06-08T21:14:34.470Z,49.00
2019-06-08T21:17:01.538Z,48.90
2019-06-08T21:19:57.752Z,48.90
2019-06-08T21:22:22.349Z,48.90
2019-06-08T21:25:11.820Z,49.00
2019-06-08T21:27:38.943Z,48.90
2019-06-08T21:30:33.467Z,48.90
2019-06-08T21:33:00.982Z,48.90
2019-06-08T21:35:55.761Z,48.80
2019-06-08T21:38:23.740Z,49.00
2019-06-08T21:41:09.798Z,48.80
2019-06-08T21:43:37.405Z,48.80
2019-06-08T21:46:28.313Z,48.80
2019-06-08T21:48:56.874Z,48.80
2019-06-08T21:51:48.498Z,48.90
2019-06-08T21:54:13.664Z,48.80
2019-06-08T21:57:02.598Z,48.80
2019-06-08T21:59:29.630Z,48.90
2019-06-08T22:02:23.787Z,48.80
2019-06-08T22:04:54.654Z,48.90
2019-06-08T22:07:38.762Z,48.70
2019-06-08T22:10:07.441Z,48.80
2019-06-08T22:12:59.605Z,48.80
2019-06-08T22:15:23.826Z,48.80
2019-06-08T22:18:18.438Z,48.80
2019-06-08T22:20:44.868Z,48.90
2019-06-08T22:23:33.380Z,48.90
2019-06-08T22:26:01.141Z,48.80
2019-06-08T22:28:52.542Z,48.90
2019-06-08T22:31:19.154Z,48.80
2019-06-08T22:34:10.284Z,48.80
2019-06-08T22:36:37.414Z,48.80
2019-06-08T22:39:28.488Z,48.70
2019-06-08T22:41:58.083Z,48.80
2019-06-08T22:44:47.912Z,48.80
2019-06-08T22:47:13.998Z,48.80
2019-06-08T22:50:05.074Z,48.80
2019-06-08T22:52:32.175Z,48.80
2019-06-08T22:55:23.785Z,48.70
2019-06-08T22:57:50.819Z,48.80
2019-06-08T23:00:51.322Z,48.80
2019-06-08T23:03:08.584Z,48.80
2019-06-08T23:06:02.317Z,48.70
2019-06-08T23:08:27.447Z,48.80
2019-06-08T23:11:18.025Z,48.70
2019-06-08T23:13:47.043Z,48.60
2019-06-08T23:16:35.432Z,48.70
2019-06-08T23:19:03.263Z,48.70
2019-06-08T23:21:58.262Z,48.70
2019-06-08T23:24:22.916Z,48.70
2019-06-08T23:27:20.784Z,48.70
2019-06-08T23:29:47.935Z,48.70
2019-06-08T23:32:38.385Z,48.70
2019-06-08T23:35:04.768Z,48.70
2019-06-08T23:37:51.898Z,48.70
2019-06-08T23:40:18.923Z,48.60
2019-06-08T23:43:10.472Z,48.60
2019-06-08T23:45:38.089Z,48.60
2019-06-08T23:48:31.831Z,48.60
2019-06-08T23:50:59.503Z,48.70
2019-06-08T23:53:50.011Z,48.70
2019-06-08T23:56:18.270Z,48.70
2019-06-08T23:59:09.323Z,48.50
